sensor_id;sensor_type;location;lat;lon;timestamp;temperature;humidity
3356;DHT22;1691;52.486;13.374;2023-06-14T00:01:39;14.70;77.60
3356;DHT22;1691;52.486;13.374;2023-06-14T00:04:06;14.70;77.80
3356;DHT22;1691;52.486;13.374;2023-06-14T00:06:35;14.70;78.00
3356;DHT22;1691;52.486;13.374;2023-06-14T00:09:02;14.70;78.20
3356;DHT22;1691;52.486;13.374;2023-06-14T00:11:29;14.70;78.30
3356;DHT22;1691;52.486;13.374;2023-06-14T00:13:57;14.70;78.30
3356;DHT22;1691;52.486;13.374;2023-06-14T00:16:24;14.70;78.70
3356;DHT22;1691;52.486;13.374;2023-06-14T00:18:51;14.60;78.90
3356;DHT22;1691;52.486;13.374;2023-06-14T00:21:19;14.60;79.50
3356;DHT22;1691;52.486;13.374;2023-06-14T00:23:46;14.60;79.80
3356;DHT22;1691;52.486;13.374;2023-06-14T00:26:13;14.50;80.20
3356;DHT22;1691;52.486;13.374;2023-06-14T00:28:41;14.50;80.40
3356;DHT22;1691;52.486;13.374;2023-06-14T00:31:08;14.50;80.80
3356;DHT22;1691;52.486;13.374;2023-06-14T00:33:35;14.40;81.00
3356;DHT22;1691;52.486;13.374;2023-06-14T00:36:02;14.40;81.30
3356;DHT22;1691;52.486;13.374;2023-06-14T00:38:29;14.40;81.90
3356;DHT22;1691;52.486;13.374;2023-06-14T00:40:56;14.40;82.10
3356;DHT22;1691;52.486;13.374;2023-06-14T00:43:23;14.40;82.60
3356;DHT22;1691;52.486;13.374;2023-06-14T00:45:50;14.40;82.80
3356;DHT22;1691;52.486;13.374;2023-06-14T00:48:18;14.30;83.00
3356;DHT22;1691;52.486;13.374;2023-06-14T00:50:45;14.30;83.40
3356;DHT22;1691;52.486;13.374;2023-06-14T00:53:16;14.30;83.80
3356;DHT22;1691;52.486;13.374;2023-06-14T00:55:44;14.30;83.90
3356;DHT22;1691;52.486;13.374;2023-06-14T00:58:11;14.30;84.30
3356;DHT22;1691;52.486;13.374;2023-06-14T01:00:38;14.30;84.50
3356;DHT22;1691;52.486;13.374;2023-06-14T01:03:05;14.20;84.70
3356;DHT22;1691;52.486;13.374;2023-06-14T01:05:33;14.20;85.10
3356;DHT22;1691;52.486;13.374;2023-06-14T01:11:16;14.20;85.40
3356;DHT22;1691;52.486;13.374;2023-06-14T01:14:11;14.10;85.60
3356;DHT22;1691;52.486;13.374;2023-06-14T01:16:39;14.10;85.60
3356;DHT22;1691;52.486;13.374;2023-06-14T01:19:10;14.10;86.20
3356;DHT22;1691;52.486;13.374;2023-06-14T01:21:40;14.10;86.40
3356;DHT22;1691;52.486;13.374;2023-06-14T01:24:09;14.10;86.50
3356;DHT22;1691;52.486;13.374;2023-06-14T01:26:38;14.10;86.70
3356;DHT22;1691;52.486;13.374;2023-06-14T01:29:13;14.10;86.90
3356;DHT22;1691;52.486;13.374;2023-06-14T01:31:44;14.10;87.10
3356;DHT22;1691;52.486;13.374;2023-06-14T01:34:12;14.10;87.30
3356;DHT22;1691;52.486;13.374;2023-06-14T01:36:41;14.00;87.50
3356;DHT22;1691;52.486;13.374;2023-06-14T01:39:14;14.00;87.70
3356;DHT22;1691;52.486;13.374;2023-06-14T01:41:43;14.00;87.90
3356;DHT22;1691;52.486;13.374;2023-06-14T01:44:12;14.00;87.90
3356;DHT22;1691;52.486;13.374;2023-06-14T01:46:41;13.90;88.00
3356;DHT22;1691;52.486;13.374;2023-06-14T01:49:09;13.90;88.00
3356;DHT22;1691;52.486;13.374;2023-06-14T01:51:36;13.90;88.40
3356;DHT22;1691;52.486;13.374;2023-06-14T01:54:03;13.90;88.60
3356;DHT22;1691;52.486;13.374;2023-06-14T01:56:30;13.90;88.80
3356;DHT22;1691;52.486;13.374;2023-06-14T01:58:57;13.90;89.00
3356;DHT22;1691;52.486;13.374;2023-06-14T02:01:24;13.90;89.00
3356;DHT22;1691;52.486;13.374;2023-06-14T02:03:53;13.90;89.20
3356;DHT22;1691;52.486;13.374;2023-06-14T02:06:20;13.90;89.20
3356;DHT22;1691;52.486;13.374;2023-06-14T02:08:47;13.90;89.30
3356;DHT22;1691;52.486;13.374;2023-06-14T02:11:14;13.80;89.50
3356;DHT22;1691;52.486;13.374;2023-06-14T02:13:42;13.80;89.50
3356;DHT22;1691;52.486;13.374;2023-06-14T02:16:09;13.80;89.90
3356;DHT22;1691;52.486;13.374;2023-06-14T02:18:36;13.80;89.90
3356;DHT22;1691;52.486;13.374;2023-06-14T02:21:03;13.70;90.10
3356;DHT22;1691;52.486;13.374;2023-06-14T02:23:30;13.70;90.20
3356;DHT22;1691;52.486;13.374;2023-06-14T02:26:01;13.70;90.30
3356;DHT22;1691;52.486;13.374;2023-06-14T02:28:29;13.70;90.40
3356;DHT22;1691;52.486;13.374;2023-06-14T02:30:57;13.70;90.50
3356;DHT22;1691;52.486;13.374;2023-06-14T02:33:23;13.70;90.70
3356;DHT22;1691;52.486;13.374;2023-06-14T02:35:52;13.70;90.70
3356;DHT22;1691;52.486;13.374;2023-06-14T02:38:19;13.70;90.70
3356;DHT22;1691;52.486;13.374;2023-06-14T02:40:46;13.70;90.90
3356;DHT22;1691;52.486;13.374;2023-06-14T02:43:13;13.70;91.00
3356;DHT22;1691;52.486;13.374;2023-06-14T02:45:40;13.70;91.00
3356;DHT22;1691;52.486;13.374;2023-06-14T02:48:07;13.70;91.20
3356;DHT22;1691;52.486;13.374;2023-06-14T02:50:34;13.70;91.20
3356;DHT22;1691;52.486;13.374;2023-06-14T02:53:01;13.70;91.30
3356;DHT22;1691;52.486;13.374;2023-06-14T02:55:29;13.70;91.20
3356;DHT22;1691;52.486;13.374;2023-06-14T02:57:56;13.70;91.20
3356;DHT22;1691;52.486;13.374;2023-06-14T03:00:23;13.70;91.30
3356;DHT22;1691;52.486;13.374;2023-06-14T03:02:50;13.70;91.40
3356;DHT22;1691;52.486;13.374;2023-06-14T03:05:18;13.70;91.40
3356;DHT22;1691;52.486;13.374;2023-06-14T03:07:48;13.70;91.30
3356;DHT22;1691;52.486;13.374;2023-06-14T03:10:17;13.80;91.40
3356;DHT22;1691;52.486;13.374;2023-06-14T03:12:44;13.80;91.40
3356;DHT22;1691;52.486;13.374;2023-06-14T03:15:11;13.80;91.30
3356;DHT22;1691;52.486;13.374;2023-06-14T03:17:40;13.80;91.40
3356;DHT22;1691;52.486;13.374;2023-06-14T03:20:12;13.80;91.40
3356;DHT22;1691;52.486;13.374;2023-06-14T03:22:40;13.80;91.40
3356;DHT22;1691;52.486;13.374;2023-06-14T03:25:08;13.80;91.40
3356;DHT22;1691;52.486;13.374;2023-06-14T03:27:37;13.90;91.40
3356;DHT22;1691;52.486;13.374;2023-06-14T03:30:05;13.90;91.40
3356;DHT22;1691;52.486;13.374;2023-06-14T03:32:34;13.90;91.50
3356;DHT22;1691;52.486;13.374;2023-06-14T03:35:01;13.90;91.40
3356;DHT22;1691;52.486;13.374;2023-06-14T03:37:28;13.90;91.40
3356;DHT22;1691;52.486;13.374;2023-06-14T03:39:56;14.00;91.40
3356;DHT22;1691;52.486;13.374;2023-06-14T03:42:23;14.00;91.30
3356;DHT22;1691;52.486;13.374;2023-06-14T03:44:52;14.00;91.30
3356;DHT22;1691;52.486;13.374;2023-06-14T03:47:19;14.10;91.20
3356;DHT22;1691;52.486;13.374;2023-06-14T03:49:46;14.10;91.20
3356;DHT22;1691;52.486;13.374;2023-06-14T03:52:13;14.20;91.10
3356;DHT22;1691;52.486;13.374;2023-06-14T03:54:40;14.20;91.00
3356;DHT22;1691;52.486;13.374;2023-06-14T03:57:30;14.20;91.00
3356;DHT22;1691;52.486;13.374;2023-06-14T03:59:57;14.30;90.90
3356;DHT22;1691;52.486;13.374;2023-06-14T04:02:24;14.30;90.90
3356;DHT22;1691;52.486;13.374;2023-06-14T04:04:51;14.40;90.90
3356;DHT22;1691;52.486;13.374;2023-06-14T04:07:20;14.70;91.00
3356;DHT22;1691;52.486;13.374;2023-06-14T04:09:48;15.10;90.80
3356;DHT22;1691;52.486;13.374;2023-06-14T04:12:15;15.70;90.50
3356;DHT22;1691;52.486;13.374;2023-06-14T04:14:42;16.40;89.30
3356;DHT22;1691;52.486;13.374;2023-06-14T04:17:09;17.10;86.90
3356;DHT22;1691;52.486;13.374;2023-06-14T04:19:36;17.80;84.50
3356;DHT22;1691;52.486;13.374;2023-06-14T04:22:05;18.10;82.30
3356;DHT22;1691;52.486;13.374;2023-06-14T04:24:32;18.40;80.40
3356;DHT22;1691;52.486;13.374;2023-06-14T04:27:01;18.60;79.30
3356;DHT22;1691;52.486;13.374;2023-06-14T04:29:28;18.90;78.00
3356;DHT22;1691;52.486;13.374;2023-06-14T04:31:56;19.30;76.50
3356;DHT22;1691;52.486;13.374;2023-06-14T04:34:28;19.70;74.40
3356;DHT22;1691;52.486;13.374;2023-06-14T04:37:01;20.10;72.60
3356;DHT22;1691;52.486;13.374;2023-06-14T04:39:28;20.40;70.90
3356;DHT22;1691;52.486;13.374;2023-06-14T04:41:55;20.80;69.40
3356;DHT22;1691;52.486;13.374;2023-06-14T04:44:24;21.10;67.70
3356;DHT22;1691;52.486;13.374;2023-06-14T04:46:57;21.60;66.40
3356;DHT22;1691;52.486;13.374;2023-06-14T04:49:25;22.00;64.40
3356;DHT22;1691;52.486;13.374;2023-06-14T04:51:56;22.30;62.70
3356;DHT22;1691;52.486;13.374;2023-06-14T04:54:26;22.50;61.60
3356;DHT22;1691;52.486;13.374;2023-06-14T04:56:54;22.80;60.60
3356;DHT22;1691;52.486;13.374;2023-06-14T04:59:21;23.20;59.20
3356;DHT22;1691;52.486;13.374;2023-06-14T05:01:51;23.60;58.10
3356;DHT22;1691;52.486;13.374;2023-06-14T05:04:20;24.00;56.90
3356;DHT22;1691;52.486;13.374;2023-06-14T05:06:49;24.40;55.30
3356;DHT22;1691;52.486;13.374;2023-06-14T05:09:16;24.80;54.10
3356;DHT22;1691;52.486;13.374;2023-06-14T05:11:46;24.90;53.00
3356;DHT22;1691;52.486;13.374;2023-06-14T05:14:14;24.90;52.50
3356;DHT22;1691;52.486;13.374;2023-06-14T05:16:41;24.60;52.20
3356;DHT22;1691;52.486;13.374;2023-06-14T05:19:09;23.90;52.90
3356;DHT22;1691;52.486;13.374;2023-06-14T05:21:37;23.00;53.90
3356;DHT22;1691;52.486;13.374;2023-06-14T05:24:09;22.30;55.20
3356;DHT22;1691;52.486;13.374;2023-06-14T05:26:36;21.60;56.40
3356;DHT22;1691;52.486;13.374;2023-06-14T05:29:03;21.00;57.50
3356;DHT22;1691;52.486;13.374;2023-06-14T05:31:30;20.50;58.70
3356;DHT22;1691;52.486;13.374;2023-06-14T05:33:57;20.20;59.60
3356;DHT22;1691;52.486;13.374;2023-06-14T05:36:24;19.90;60.50
3356;DHT22;1691;52.486;13.374;2023-06-14T05:38:52;19.60;61.60
3356;DHT22;1691;52.486;13.374;2023-06-14T05:41:27;19.30;62.30
3356;DHT22;1691;52.486;13.374;2023-06-14T05:43:55;19.10;63.10
3356;DHT22;1691;52.486;13.374;2023-06-14T05:46:23;18.90;64.20
3356;DHT22;1691;52.486;13.374;2023-06-14T05:48:54;18.80;64.70
3356;DHT22;1691;52.486;13.374;2023-06-14T05:51:23;18.80;65.30
3356;DHT22;1691;52.486;13.374;2023-06-14T05:53:52;18.80;65.50
3356;DHT22;1691;52.486;13.374;2023-06-14T05:56:20;18.60;65.90
3356;DHT22;1691;52.486;13.374;2023-06-14T05:58:47;18.50;66.60
3356;DHT22;1691;52.486;13.374;2023-06-14T06:01:14;18.40;67.40
3356;DHT22;1691;52.486;13.374;2023-06-14T06:03:42;18.30;67.70
3356;DHT22;1691;52.486;13.374;2023-06-14T06:06:13;18.30;68.10
3356;DHT22;1691;52.486;13.374;2023-06-14T06:08:40;18.20;68.30
3356;DHT22;1691;52.486;13.374;2023-06-14T06:11:07;18.10;68.80
3356;DHT22;1691;52.486;13.374;2023-06-14T06:13:35;17.90;69.60
3356;DHT22;1691;52.486;13.374;2023-06-14T06:16:03;17.80;70.30
3356;DHT22;1691;52.486;13.374;2023-06-14T06:18:30;17.60;70.90
3356;DHT22;1691;52.486;13.374;2023-06-14T06:20:57;17.50;71.60
3356;DHT22;1691;52.486;13.374;2023-06-14T06:23:24;17.40;72.20
3356;DHT22;1691;52.486;13.374;2023-06-14T06:25:52;17.40;72.60
3356;DHT22;1691;52.486;13.374;2023-06-14T06:28:19;17.40;72.60
3356;DHT22;1691;52.486;13.374;2023-06-14T06:30:46;17.40;72.80
3356;DHT22;1691;52.486;13.374;2023-06-14T06:33:14;17.40;72.80
3356;DHT22;1691;52.486;13.374;2023-06-14T06:35:41;17.40;72.90
3356;DHT22;1691;52.486;13.374;2023-06-14T06:38:08;17.50;72.90
3356;DHT22;1691;52.486;13.374;2023-06-14T06:40:36;17.60;72.90
3356;DHT22;1691;52.486;13.374;2023-06-14T06:43:04;17.60;72.90
3356;DHT22;1691;52.486;13.374;2023-06-14T06:45:31;17.60;72.90
3356;DHT22;1691;52.486;13.374;2023-06-14T06:47:58;17.60;73.10
3356;DHT22;1691;52.486;13.374;2023-06-14T06:50:25;17.60;73.30
3356;DHT22;1691;52.486;13.374;2023-06-14T06:52:52;17.60;73.50
3356;DHT22;1691;52.486;13.374;2023-06-14T06:55:20;17.70;73.50
3356;DHT22;1691;52.486;13.374;2023-06-14T06:57:47;17.80;73.50
3356;DHT22;1691;52.486;13.374;2023-06-14T07:00:17;18.00;73.30
3356;DHT22;1691;52.486;13.374;2023-06-14T07:02:45;18.10;72.60
3356;DHT22;1691;52.486;13.374;2023-06-14T07:05:12;18.30;72.20
3356;DHT22;1691;52.486;13.374;2023-06-14T07:07:40;18.60;71.60
3356;DHT22;1691;52.486;13.374;2023-06-14T07:10:07;18.90;70.90
3356;DHT22;1691;52.486;13.374;2023-06-14T07:12:34;19.20;70.00
3356;DHT22;1691;52.486;13.374;2023-06-14T07:15:07;19.50;69.00
3356;DHT22;1691;52.486;13.374;2023-06-14T07:17:35;19.70;68.30
3356;DHT22;1691;52.486;13.374;2023-06-14T07:20:04;20.00;67.70
3356;DHT22;1691;52.486;13.374;2023-06-14T07:22:34;20.30;66.60
3356;DHT22;1691;52.486;13.374;2023-06-14T07:25:01;20.40;65.50
3356;DHT22;1691;52.486;13.374;2023-06-14T07:27:29;20.40;64.90
3356;DHT22;1691;52.486;13.374;2023-06-14T07:29:58;20.30;65.10
3356;DHT22;1691;52.486;13.374;2023-06-14T07:32:25;20.50;64.90
3356;DHT22;1691;52.486;13.374;2023-06-14T07:34:52;20.90;64.00
3356;DHT22;1691;52.486;13.374;2023-06-14T07:37:19;21.30;62.30
3356;DHT22;1691;52.486;13.374;2023-06-14T07:39:46;22.00;60.60
3356;DHT22;1691;52.486;13.374;2023-06-14T07:42:14;22.70;58.70
3356;DHT22;1691;52.486;13.374;2023-06-14T07:44:41;23.50;56.90
3356;DHT22;1691;52.486;13.374;2023-06-14T07:47:08;24.40;54.90
3356;DHT22;1691;52.486;13.374;2023-06-14T07:49:35;25.00;53.30
3356;DHT22;1691;52.486;13.374;2023-06-14T07:52:02;25.40;51.80
3356;DHT22;1691;52.486;13.374;2023-06-14T07:54:29;25.50;50.90
3356;DHT22;1691;52.486;13.374;2023-06-14T07:56:57;25.20;50.70
3356;DHT22;1691;52.486;13.374;2023-06-14T07:59:27;24.70;50.90
3356;DHT22;1691;52.486;13.374;2023-06-14T08:01:54;24.50;51.50
3356;DHT22;1691;52.486;13.374;2023-06-14T08:04:21;24.60;51.50
3356;DHT22;1691;52.486;13.374;2023-06-14T08:06:48;24.60;51.20
3356;DHT22;1691;52.486;13.374;2023-06-14T08:09:16;24.50;51.00
3356;DHT22;1691;52.486;13.374;2023-06-14T08:11:43;24.30;51.30
3356;DHT22;1691;52.486;13.374;2023-06-14T08:14:10;24.10;51.60
3356;DHT22;1691;52.486;13.374;2023-06-14T08:16:37;24.00;51.90
3356;DHT22;1691;52.486;13.374;2023-06-14T08:19:05;24.00;51.80
3356;DHT22;1691;52.486;13.374;2023-06-14T08:21:32;23.90;51.80
3356;DHT22;1691;52.486;13.374;2023-06-14T08:24:00;23.70;51.60
3356;DHT22;1691;52.486;13.374;2023-06-14T08:26:27;23.40;51.90
3356;DHT22;1691;52.486;13.374;2023-06-14T08:28:58;23.20;52.40
3356;DHT22;1691;52.486;13.374;2023-06-14T08:31:25;23.10;52.70
3356;DHT22;1691;52.486;13.374;2023-06-14T08:33:54;23.10;52.90
3356;DHT22;1691;52.486;13.374;2023-06-14T08:36:21;23.20;52.70
3356;DHT22;1691;52.486;13.374;2023-06-14T08:38:49;23.90;52.10
3356;DHT22;1691;52.486;13.374;2023-06-14T08:41:23;25.10;49.80
3356;DHT22;1691;52.486;13.374;2023-06-14T08:43:52;25.90;47.50
3356;DHT22;1691;52.486;13.374;2023-06-14T08:46:19;26.00;46.90
3356;DHT22;1691;52.486;13.374;2023-06-14T08:48:48;25.70;47.00
3356;DHT22;1691;52.486;13.374;2023-06-14T08:51:18;25.50;47.30
3356;DHT22;1691;52.486;13.374;2023-06-14T08:53:46;25.30;47.50
3356;DHT22;1691;52.486;13.374;2023-06-14T08:56:18;25.10;47.30
3356;DHT22;1691;52.486;13.374;2023-06-14T08:58:45;24.70;47.50
3356;DHT22;1691;52.486;13.374;2023-06-14T09:01:14;24.30;48.40
3356;DHT22;1691;52.486;13.374;2023-06-14T09:03:43;24.00;48.50
3356;DHT22;1691;52.486;13.374;2023-06-14T09:06:11;23.80;49.00
3356;DHT22;1691;52.486;13.374;2023-06-14T09:08:44;23.70;49.00
3356;DHT22;1691;52.486;13.374;2023-06-14T09:11:14;23.80;49.00
3356;DHT22;1691;52.486;13.374;2023-06-14T09:13:42;23.90;48.70
3356;DHT22;1691;52.486;13.374;2023-06-14T09:16:09;24.10;48.40
3356;DHT22;1691;52.486;13.374;2023-06-14T09:18:38;24.50;48.10
3356;DHT22;1691;52.486;13.374;2023-06-14T09:21:08;24.90;47.50
3356;DHT22;1691;52.486;13.374;2023-06-14T09:23:39;25.20;47.00
3356;DHT22;1691;52.486;13.374;2023-06-14T09:26:09;25.30;46.70
3356;DHT22;1691;52.486;13.374;2023-06-14T09:28:50;25.20;46.70
3356;DHT22;1691;52.486;13.374;2023-06-14T09:31:19;24.90;47.00
3356;DHT22;1691;52.486;13.374;2023-06-14T09:33:48;24.60;47.20
3356;DHT22;1691;52.486;13.374;2023-06-14T09:36:24;24.30;47.20
3356;DHT22;1691;52.486;13.374;2023-06-14T09:38:56;23.90;47.50
3356;DHT22;1691;52.486;13.374;2023-06-14T09:41:35;23.70;47.80
3356;DHT22;1691;52.486;13.374;2023-06-14T09:44:05;23.40;48.10
3356;DHT22;1691;52.486;13.374;2023-06-14T09:46:40;23.40;48.40
3356;DHT22;1691;52.486;13.374;2023-06-14T09:49:09;23.40;48.40
3356;DHT22;1691;52.486;13.374;2023-06-14T09:51:42;23.60;48.40
3356;DHT22;1691;52.486;13.374;2023-06-14T09:54:15;23.90;47.80
3356;DHT22;1691;52.486;13.374;2023-06-14T09:56:47;23.90;47.80
3356;DHT22;1691;52.486;13.374;2023-06-14T09:59:19;23.90;47.80
3356;DHT22;1691;52.486;13.374;2023-06-14T10:01:57;23.90;48.10
3356;DHT22;1691;52.486;13.374;2023-06-14T10:04:27;23.70;48.20
3356;DHT22;1691;52.486;13.374;2023-06-14T10:06:57;23.50;48.70
3356;DHT22;1691;52.486;13.374;2023-06-14T10:09:25;23.40;49.00
3356;DHT22;1691;52.486;13.374;2023-06-14T10:11:55;23.40;49.00
3356;DHT22;1691;52.486;13.374;2023-06-14T10:14:22;23.30;49.20
3356;DHT22;1691;52.486;13.374;2023-06-14T10:17:19;23.40;49.30
3356;DHT22;1691;52.486;13.374;2023-06-14T10:19:54;23.30;49.30
3356;DHT22;1691;52.486;13.374;2023-06-14T10:22:32;23.30;49.30
3356;DHT22;1691;52.486;13.374;2023-06-14T10:25:06;23.30;49.30
3356;DHT22;1691;52.486;13.374;2023-06-14T10:27:44;23.50;49.00
3356;DHT22;1691;52.486;13.374;2023-06-14T10:30:15;23.50;48.70
3356;DHT22;1691;52.486;13.374;2023-06-14T10:33:05;23.40;48.70
3356;DHT22;1691;52.486;13.374;2023-06-14T10:35:37;23.10;49.00
3356;DHT22;1691;52.486;13.374;2023-06-14T10:38:11;23.00;49.20
3356;DHT22;1691;52.486;13.374;2023-06-14T10:40:40;23.00;49.60
3356;DHT22;1691;52.486;13.374;2023-06-14T10:43:22;23.00;49.60
3356;DHT22;1691;52.486;13.374;2023-06-14T10:48:48;23.00;50.10
3356;DHT22;1691;52.486;13.374;2023-06-14T10:51:19;23.00;49.90
3356;DHT22;1691;52.486;13.374;2023-06-14T10:53:48;23.00;49.90
3356;DHT22;1691;52.486;13.374;2023-06-14T10:56:31;23.00;49.90
3356;DHT22;1691;52.486;13.374;2023-06-14T10:58:59;23.10;49.80
3356;DHT22;1691;52.486;13.374;2023-06-14T11:01:36;23.20;49.50
3356;DHT22;1691;52.486;13.374;2023-06-14T11:04:07;23.30;49.20
3356;DHT22;1691;52.486;13.374;2023-06-14T11:06:47;23.30;48.90
3356;DHT22;1691;52.486;13.374;2023-06-14T11:12:25;23.40;48.40
3356;DHT22;1691;52.486;13.374;2023-06-14T11:14:55;23.50;48.20
3356;DHT22;1691;52.486;13.374;2023-06-14T11:17:22;23.60;48.10
3356;DHT22;1691;52.486;13.374;2023-06-14T11:19:49;23.70;47.80
3356;DHT22;1691;52.486;13.374;2023-06-14T11:22:16;23.80;47.60
3356;DHT22;1691;52.486;13.374;2023-06-14T11:24:43;24.00;47.20
3356;DHT22;1691;52.486;13.374;2023-06-14T11:27:11;24.20;46.50
3356;DHT22;1691;52.486;13.374;2023-06-14T11:29:48;24.50;46.10
3356;DHT22;1691;52.486;13.374;2023-06-14T11:32:16;24.80;45.20
3356;DHT22;1691;52.486;13.374;2023-06-14T11:34:46;24.90;44.70
3356;DHT22;1691;52.486;13.374;2023-06-14T11:37:13;25.00;44.20
3356;DHT22;1691;52.486;13.374;2023-06-14T11:39:43;24.90;44.20
3356;DHT22;1691;52.486;13.374;2023-06-14T11:42:17;24.90;44.20
3356;DHT22;1691;52.486;13.374;2023-06-14T11:44:48;25.10;44.10
3356;DHT22;1691;52.486;13.374;2023-06-14T11:47:16;25.30;43.50
3356;DHT22;1691;52.486;13.374;2023-06-14T11:49:43;25.50;43.00
3356;DHT22;1691;52.486;13.374;2023-06-14T11:52:11;25.60;42.70
3356;DHT22;1691;52.486;13.374;2023-06-14T11:54:38;25.50;42.90
3356;DHT22;1691;52.486;13.374;2023-06-14T11:57:07;25.30;43.20
3356;DHT22;1691;52.486;13.374;2023-06-14T11:59:40;25.30;43.20
3356;DHT22;1691;52.486;13.374;2023-06-14T12:02:08;25.30;42.90
3356;DHT22;1691;52.486;13.374;2023-06-14T12:04:35;25.40;42.70
3356;DHT22;1691;52.486;13.374;2023-06-14T12:07:18;25.40;42.20
3356;DHT22;1691;52.486;13.374;2023-06-14T12:12:26;25.10;42.40
3356;DHT22;1691;52.486;13.374;2023-06-14T12:14:54;24.90;42.70
3356;DHT22;1691;52.486;13.374;2023-06-14T12:17:23;24.60;43.20
3356;DHT22;1691;52.486;13.374;2023-06-14T12:19:50;24.40;43.50
3356;DHT22;1691;52.486;13.374;2023-06-14T12:22:18;24.20;43.60
3356;DHT22;1691;52.486;13.374;2023-06-14T12:24:45;24.10;43.80
3356;DHT22;1691;52.486;13.374;2023-06-14T12:27:12;23.90;43.60
3356;DHT22;1691;52.486;13.374;2023-06-14T12:29:42;23.80;43.90
3356;DHT22;1691;52.486;13.374;2023-06-14T12:32:13;23.70;44.20
3356;DHT22;1691;52.486;13.374;2023-06-14T12:34:40;23.70;44.20
3356;DHT22;1691;52.486;13.374;2023-06-14T12:37:08;23.60;44.10
3356;DHT22;1691;52.486;13.374;2023-06-14T12:39:35;23.50;44.10
3356;DHT22;1691;52.486;13.374;2023-06-14T12:42:05;23.40;44.20
3356;DHT22;1691;52.486;13.374;2023-06-14T12:44:32;23.40;44.20
3356;DHT22;1691;52.486;13.374;2023-06-14T12:47:02;23.40;44.10
3356;DHT22;1691;52.486;13.374;2023-06-14T12:49:29;23.50;44.10
3356;DHT22;1691;52.486;13.374;2023-06-14T12:51:57;23.50;43.80
3356;DHT22;1691;52.486;13.374;2023-06-14T12:54:24;23.50;43.50
3356;DHT22;1691;52.486;13.374;2023-06-14T12:57:07;23.50;43.30
3356;DHT22;1691;52.486;13.374;2023-06-14T12:59:34;23.60;43.20
3356;DHT22;1691;52.486;13.374;2023-06-14T13:02:17;23.60;42.90
3356;DHT22;1691;52.486;13.374;2023-06-14T13:04:46;23.70;41.60
3356;DHT22;1691;52.486;13.374;2023-06-14T13:07:14;23.70;41.30
3356;DHT22;1691;52.486;13.374;2023-06-14T13:09:42;23.70;40.70
3356;DHT22;1691;52.486;13.374;2023-06-14T13:12:11;23.80;40.40
3356;DHT22;1691;52.486;13.374;2023-06-14T13:14:39;23.90;40.10
3356;DHT22;1691;52.486;13.374;2023-06-14T13:17:10;24.00;39.60
3356;DHT22;1691;52.486;13.374;2023-06-14T13:19:37;24.10;39.20
3356;DHT22;1691;52.486;13.374;2023-06-14T13:22:05;24.10;38.90
3356;DHT22;1691;52.486;13.374;2023-06-14T13:24:32;24.20;38.20
3356;DHT22;1691;52.486;13.374;2023-06-14T13:26:59;24.20;38.20
3356;DHT22;1691;52.486;13.374;2023-06-14T13:29:26;24.20;38.20
3356;DHT22;1691;52.486;13.374;2023-06-14T13:31:54;24.20;38.10
3356;DHT22;1691;52.486;13.374;2023-06-14T13:34:22;24.10;38.20
3356;DHT22;1691;52.486;13.374;2023-06-14T13:36:50;24.20;37.90
3356;DHT22;1691;52.486;13.374;2023-06-14T13:39:17;24.40;37.60
3356;DHT22;1691;52.486;13.374;2023-06-14T13:41:44;24.50;37.50
3356;DHT22;1691;52.486;13.374;2023-06-14T13:44:11;24.70;37.30
3356;DHT22;1691;52.486;13.374;2023-06-14T13:46:42;24.90;36.90
3356;DHT22;1691;52.486;13.374;2023-06-14T13:49:10;25.00;36.50
3356;DHT22;1691;52.486;13.374;2023-06-14T13:51:38;25.10;36.20
3356;DHT22;1691;52.486;13.374;2023-06-14T13:54:05;25.10;35.90
3356;DHT22;1691;52.486;13.374;2023-06-14T13:56:32;25.30;35.60
3356;DHT22;1691;52.486;13.374;2023-06-14T13:59:00;25.50;35.30
3356;DHT22;1691;52.486;13.374;2023-06-14T14:01:27;25.60;35.20
3356;DHT22;1691;52.486;13.374;2023-06-14T14:03:55;25.50;35.00
3356;DHT22;1691;52.486;13.374;2023-06-14T14:06:23;25.50;35.00
3356;DHT22;1691;52.486;13.374;2023-06-14T14:08:50;25.50;35.00
3356;DHT22;1691;52.486;13.374;2023-06-14T14:11:17;25.60;35.00
3356;DHT22;1691;52.486;13.374;2023-06-14T14:13:44;25.70;35.00
3356;DHT22;1691;52.486;13.374;2023-06-14T14:16:13;25.70;35.30
3356;DHT22;1691;52.486;13.374;2023-06-14T14:18:40;25.60;35.50
3356;DHT22;1691;52.486;13.374;2023-06-14T14:21:07;25.60;35.50
3356;DHT22;1691;52.486;13.374;2023-06-14T14:23:35;25.50;35.60
3356;DHT22;1691;52.486;13.374;2023-06-14T14:26:03;25.60;35.60
3356;DHT22;1691;52.486;13.374;2023-06-14T14:28:31;25.50;35.60
3356;DHT22;1691;52.486;13.374;2023-06-14T14:31:00;25.40;35.80
3356;DHT22;1691;52.486;13.374;2023-06-14T14:33:28;25.40;35.90
3356;DHT22;1691;52.486;13.374;2023-06-14T14:35:55;25.30;35.90
3356;DHT22;1691;52.486;13.374;2023-06-14T14:38:22;25.30;36.10
3356;DHT22;1691;52.486;13.374;2023-06-14T14:40:49;25.30;35.90
3356;DHT22;1691;52.486;13.374;2023-06-14T14:43:16;25.20;35.90
3356;DHT22;1691;52.486;13.374;2023-06-14T14:45:43;25.20;35.90
3356;DHT22;1691;52.486;13.374;2023-06-14T14:48:10;25.20;35.90
3356;DHT22;1691;52.486;13.374;2023-06-14T14:50:38;25.20;35.80
3356;DHT22;1691;52.486;13.374;2023-06-14T14:53:06;25.20;35.60
3356;DHT22;1691;52.486;13.374;2023-06-14T14:55:33;25.10;35.60
3356;DHT22;1691;52.486;13.374;2023-06-14T14:58:02;25.00;35.50
3356;DHT22;1691;52.486;13.374;2023-06-14T15:00:30;24.80;35.80
3356;DHT22;1691;52.486;13.374;2023-06-14T15:02:58;24.60;36.40
3356;DHT22;1691;52.486;13.374;2023-06-14T15:05:25;24.40;37.00
3356;DHT22;1691;52.486;13.374;2023-06-14T15:07:52;24.20;37.60
3356;DHT22;1691;52.486;13.374;2023-06-14T15:10:19;24.10;38.20
3356;DHT22;1691;52.486;13.374;2023-06-14T15:12:46;24.00;38.50
3356;DHT22;1691;52.486;13.374;2023-06-14T15:15:13;23.90;38.50
3356;DHT22;1691;52.486;13.374;2023-06-14T15:17:40;23.80;39.00
3356;DHT22;1691;52.486;13.374;2023-06-14T15:20:07;23.70;39.30
3356;DHT22;1691;52.486;13.374;2023-06-14T15:22:35;23.50;39.60
3356;DHT22;1691;52.486;13.374;2023-06-14T15:25:02;23.40;39.90
3356;DHT22;1691;52.486;13.374;2023-06-14T15:27:30;23.30;40.10
3356;DHT22;1691;52.486;13.374;2023-06-14T15:29:57;23.30;40.10
3356;DHT22;1691;52.486;13.374;2023-06-14T15:32:24;23.30;40.10
3356;DHT22;1691;52.486;13.374;2023-06-14T15:34:52;23.30;39.90
3356;DHT22;1691;52.486;13.374;2023-06-14T15:37:19;23.30;40.10
3356;DHT22;1691;52.486;13.374;2023-06-14T15:39:46;23.30;40.10
3356;DHT22;1691;52.486;13.374;2023-06-14T15:42:13;23.30;39.90
3356;DHT22;1691;52.486;13.374;2023-06-14T15:44:40;23.30;39.90
3356;DHT22;1691;52.486;13.374;2023-06-14T15:47:08;23.30;39.90
3356;DHT22;1691;52.486;13.374;2023-06-14T15:49:35;23.30;39.90
3356;DHT22;1691;52.486;13.374;2023-06-14T15:52:03;23.30;39.90
3356;DHT22;1691;52.486;13.374;2023-06-14T15:54:30;23.50;39.80
3356;DHT22;1691;52.486;13.374;2023-06-14T15:56:57;23.60;39.60
3356;DHT22;1691;52.486;13.374;2023-06-14T15:59:24;23.70;39.50
3356;DHT22;1691;52.486;13.374;2023-06-14T16:01:54;23.90;39.30
3356;DHT22;1691;52.486;13.374;2023-06-14T16:04:21;24.00;39.20
3356;DHT22;1691;52.486;13.374;2023-06-14T16:06:49;24.10;39.00